sensor_id;sensor_type;location;lat;lon;timestamp;pressure;altitude;pressure_sealevel;temperature;humidity
16255;BME280;8235;52.198;9.904;2023-12-04T00:01:44;101157.25;;;-1.80;90.25
16255;BME280;8235;52.198;9.904;2023-12-04T00:04:11;101155.47;;;-1.73;89.75
16255;BME280;8235;52.198;9.904;2023-12-04T00:06:37;101164.16;;;-1.70;89.00
16255;BME280;8235;52.198;9.904;2023-12-04T00:09:04;101156.34;;;-1.73;88.62
16255;BME280;8235;52.198;9.904;2023-12-04T00:11:30;101156.34;;;-1.73;88.63
16255;BME280;8235;52.198;9.904;2023-12-04T00:13:57;101145.91;;;-1.75;88.94
16255;BME280;8235;52.198;9.904;2023-12-04T00:16:24;101139.78;;;-1.72;89.74
16255;BME280;8235;52.198;9.904;2023-12-04T00:18:52;101145.00;;;-1.72;90.16
16255;BME280;8235;52.198;9.904;2023-12-04T00:21:18;101136.31;;;-1.74;91.25
16255;BME280;8235;52.198;9.904;2023-12-04T00:23:45;101128.47;;;-1.71;91.40
16255;BME280;8235;52.198;9.904;2023-12-04T00:26:12;101131.09;;;-1.74;92.23
16255;BME280;8235;52.198;9.904;2023-12-04T00:28:38;101113.69;;;-1.73;92.06
16255;BME280;8235;52.198;9.904;2023-12-04T00:31:06;101114.56;;;-1.73;92.82
16255;BME280;8235;52.198;9.904;2023-12-04T00:33:32;101110.19;;;-1.66;92.14
16255;BME280;8235;52.198;9.904;2023-12-04T00:36:00;101104.94;;;-1.66;92.52
16255;BME280;8235;52.198;9.904;2023-12-04T00:38:26;101102.31;;;-1.62;92.57
16255;BME280;8235;52.198;9.904;2023-12-04T00:40:53;101097.91;;;-1.60;92.75
16255;BME280;8235;52.198;9.904;2023-12-04T00:43:19;101090.97;;;-1.59;92.25
16255;BME280;8235;52.198;9.904;2023-12-04T00:45:46;101083.13;;;-1.58;92.26
16255;BME280;8235;52.198;9.904;2023-12-04T00:48:12;101078.75;;;-1.56;92.11
16255;BME280;8235;52.198;9.904;2023-12-04T00:50:39;101083.97;;;-1.57;92.16
16255;BME280;8235;52.198;9.904;2023-12-04T00:53:06;101077.88;;;-1.55;92.03
16255;BME280;8235;52.198;9.904;2023-12-04T00:55:33;101078.75;;;-1.59;92.07
16255;BME280;8235;52.198;9.904;2023-12-04T00:57:59;101063.09;;;-1.60;92.52
16255;BME280;8235;52.198;9.904;2023-12-04T01:00:26;101057.00;;;-1.61;92.32
16255;BME280;8235;52.198;9.904;2023-12-04T01:02:52;101051.84;;;-1.62;92.47
16255;BME280;8235;52.198;9.904;2023-12-04T01:05:19;101050.09;;;-1.62;92.07
16255;BME280;8235;52.198;9.904;2023-12-04T01:07:45;101056.19;;;-1.66;92.00
16255;BME280;8235;52.198;9.904;2023-12-04T01:10:13;101050.13;;;-1.66;92.02
16255;BME280;8235;52.198;9.904;2023-12-04T01:12:40;101048.34;;;-1.63;91.51
16255;BME280;8235;52.198;9.904;2023-12-04T01:15:07;101040.50;;;-1.61;91.52
16255;BME280;8235;52.198;9.904;2023-12-04T01:17:34;101043.13;;;-1.61;91.24
16255;BME280;8235;52.198;9.904;2023-12-04T01:20:01;101037.91;;;-1.61;90.92
16255;BME280;8235;52.198;9.904;2023-12-04T01:22:27;101035.28;;;-1.63;91.71
16255;BME280;8235;52.198;9.904;2023-12-04T01:24:54;101033.50;;;-1.61;92.05
16255;BME280;8235;52.198;9.904;2023-12-04T01:27:21;101031.75;;;-1.56;91.53
16255;BME280;8235;52.198;9.904;2023-12-04T01:29:48;101034.34;;;-1.53;91.51
16255;BME280;8235;52.198;9.904;2023-12-04T01:32:14;101023.03;;;-1.55;92.00
16255;BME280;8235;52.198;9.904;2023-12-04T01:34:41;101026.50;;;-1.56;91.17
16255;BME280;8235;52.198;9.904;2023-12-04T01:37:07;101024.78;;;-1.55;92.13
16255;BME280;8235;52.198;9.904;2023-12-04T01:39:34;101019.56;;;-1.57;92.16
16255;BME280;8235;52.198;9.904;2023-12-04T01:42:00;101023.00;;;-1.53;92.34
16255;BME280;8235;52.198;9.904;2023-12-04T01:44:28;101022.13;;;-1.52;92.41
16255;BME280;8235;52.198;9.904;2023-12-04T01:46:55;101026.47;;;-1.50;92.95
16255;BME280;8235;52.198;9.904;2023-12-04T01:49:21;101016.00;;;-1.48;93.13
16255;BME280;8235;52.198;9.904;2023-12-04T01:51:48;101016.00;;;-1.45;93.38
16255;BME280;8235;52.198;9.904;2023-12-04T01:54:15;101002.94;;;-1.45;93.60
16255;BME280;8235;52.198;9.904;2023-12-04T01:56:44;100993.34;;;-1.45;94.29
16255;BME280;8235;52.198;9.904;2023-12-04T01:59:11;100986.41;;;-1.49;94.99
16255;BME280;8235;52.198;9.904;2023-12-04T02:01:39;100990.78;;;-1.51;95.74
16255;BME280;8235;52.198;9.904;2023-12-04T02:04:06;100982.09;;;-1.51;96.23
16255;BME280;8235;52.198;9.904;2023-12-04T02:06:33;100979.47;;;-1.53;96.76
16255;BME280;8235;52.198;9.904;2023-12-04T02:09:01;100974.22;;;-1.47;96.94
16255;BME280;8235;52.198;9.904;2023-12-04T02:11:28;100960.31;;;-1.52;97.38
16255;BME280;8235;52.198;9.904;2023-12-04T02:13:55;100968.16;;;-1.52;97.88
16255;BME280;8235;52.198;9.904;2023-12-04T02:16:23;100961.22;;;-1.57;97.93
16255;BME280;8235;52.198;9.904;2023-12-04T02:18:53;100966.47;;;-1.59;98.20
16255;BME280;8235;52.198;9.904;2023-12-04T02:21:20;100956.84;;;-1.55;98.22
16255;BME280;8235;52.198;9.904;2023-12-04T02:23:49;100956.84;;;-1.55;98.54
16255;BME280;8235;52.198;9.904;2023-12-04T02:26:18;100951.63;;;-1.54;98.58
16255;BME280;8235;52.198;9.904;2023-12-04T02:28:55;100955.09;;;-1.53;98.26
16255;BME280;8235;52.198;9.904;2023-12-04T02:31:24;100946.38;;;-1.52;98.97
16255;BME280;8235;52.198;9.904;2023-12-04T02:33:52;100942.91;;;-1.53;99.13
16255;BME280;8235;52.198;9.904;2023-12-04T02:36:22;100935.06;;;-1.53;99.08
16255;BME280;8235;52.198;9.904;2023-12-04T02:38:52;100928.91;;;-1.44;98.30
16255;BME280;8235;52.198;9.904;2023-12-04T02:41:19;100932.41;;;-1.44;97.78
16255;BME280;8235;52.198;9.904;2023-12-04T02:43:45;100934.16;;;-1.46;97.97
16255;BME280;8235;52.198;9.904;2023-12-04T02:46:12;100926.25;;;-1.41;98.31
16255;BME280;8235;52.198;9.904;2023-12-04T02:48:38;100923.63;;;-1.40;97.33
16255;BME280;8235;52.198;9.904;2023-12-04T02:51:05;100915.72;;;-1.33;96.01
16255;BME280;8235;52.198;9.904;2023-12-04T02:53:32;100902.69;;;-1.35;95.24
16255;BME280;8235;52.198;9.904;2023-12-04T02:55:59;100902.66;;;-1.33;95.23
16255;BME280;8235;52.198;9.904;2023-12-04T02:58:26;100901.78;;;-1.32;95.05
16255;BME280;8235;52.198;9.904;2023-12-04T03:00:52;100888.72;;;-1.34;95.07
16255;BME280;8235;52.198;9.904;2023-12-04T03:03:19;100894.81;;;-1.33;94.31
16255;BME280;8235;52.198;9.904;2023-12-04T03:05:45;100882.63;;;-1.31;93.43
16255;BME280;8235;52.198;9.904;2023-12-04T03:08:12;100880.84;;;-1.29;92.97
16255;BME280;8235;52.198;9.904;2023-12-04T03:10:38;100870.31;;;-1.25;92.04
16255;BME280;8235;52.198;9.904;2023-12-04T03:13:06;100863.34;;;-1.24;92.46
16255;BME280;8235;52.198;9.904;2023-12-04T03:15:33;100870.31;;;-1.25;92.60
16255;BME280;8235;52.198;9.904;2023-12-04T03:17:59;100867.75;;;-1.26;92.60
16255;BME280;8235;52.198;9.904;2023-12-04T03:20:26;100866.91;;;-1.27;93.22
16255;BME280;8235;52.198;9.904;2023-12-04T03:22:53;100872.13;;;-1.27;92.85
16255;BME280;8235;52.198;9.904;2023-12-04T03:25:19;100882.53;;;-1.25;92.20
16255;BME280;8235;52.198;9.904;2023-12-04T03:27:46;100871.25;;;-1.26;91.06
16255;BME280;8235;52.198;9.904;2023-12-04T03:30:14;100877.25;;;-1.19;89.60
16255;BME280;8235;52.198;9.904;2023-12-04T03:32:41;100872.00;;;-1.18;88.75
16255;BME280;8235;52.198;9.904;2023-12-04T03:35:07;100873.75;;;-1.18;88.27
16255;BME280;8235;52.198;9.904;2023-12-04T03:37:34;100871.09;;;-1.14;86.73
16255;BME280;8235;52.198;9.904;2023-12-04T03:40:00;100862.38;;;-1.14;86.79
16255;BME280;8235;52.198;9.904;2023-12-04T03:42:27;100859.75;;;-1.13;86.67
16255;BME280;8235;52.198;9.904;2023-12-04T03:44:53;100864.09;;;-1.13;86.52
16255;BME280;8235;52.198;9.904;2023-12-04T03:47:21;100847.53;;;-1.11;85.84
16255;BME280;8235;52.198;9.904;2023-12-04T03:49:48;100848.31;;;-1.07;85.48
16255;BME280;8235;52.198;9.904;2023-12-04T03:52:15;100843.97;;;-1.07;85.10
16255;BME280;8235;52.198;9.904;2023-12-04T03:54:41;100827.41;;;-1.07;85.48
16255;BME280;8235;52.198;9.904;2023-12-04T03:57:08;100835.31;;;-1.10;85.83
16255;BME280;8235;52.198;9.904;2023-12-04T03:59:34;100826.63;;;-1.11;86.31
16255;BME280;8235;52.198;9.904;2023-12-04T04:02:01;100829.97;;;-1.02;84.47
16255;BME280;8235;52.198;9.904;2023-12-04T04:04:28;100821.28;;;-1.05;83.87
16255;BME280;8235;52.198;9.904;2023-12-04T04:06:55;100826.53;;;-1.06;84.68
16255;BME280;8235;52.198;9.904;2023-12-04T04:09:21;100816.94;;;-1.06;84.42
16255;BME280;8235;52.198;9.904;2023-12-04T04:11:48;100811.78;;;-1.09;84.46
16255;BME280;8235;52.198;9.904;2023-12-04T04:14:14;100807.44;;;-1.08;84.08
16255;BME280;8235;52.198;9.904;2023-12-04T04:16:41;100799.50;;;-1.05;84.31
16255;BME280;8235;52.198;9.904;2023-12-04T04:19:07;100790.78;;;-1.04;83.34
16255;BME280;8235;52.198;9.904;2023-12-04T04:21:39;100782.94;;;-1.04;82.51
16255;BME280;8235;52.198;9.904;2023-12-04T04:24:05;100782.03;;;-1.01;82.28
16255;BME280;8235;52.198;9.904;2023-12-04T04:26:32;100774.16;;;-0.97;81.54
16255;BME280;8235;52.198;9.904;2023-12-04T04:28:58;100778.53;;;-0.99;81.08
16255;BME280;8235;52.198;9.904;2023-12-04T04:31:25;100788.13;;;-0.99;81.63
16255;BME280;8235;52.198;9.904;2023-12-04T04:33:51;100790.72;;;-0.98;82.17
16255;BME280;8235;52.198;9.904;2023-12-04T04:36:17;100781.94;;;-0.94;81.58
16255;BME280;8235;52.198;9.904;2023-12-04T04:38:45;100777.56;;;-0.92;81.44
16255;BME280;8235;52.198;9.904;2023-12-04T04:41:13;100771.50;;;-0.94;82.24
16255;BME280;8235;52.198;9.904;2023-12-04T04:43:39;100773.19;;;-0.90;82.19
16255;BME280;8235;52.198;9.904;2023-12-04T04:46:06;100765.25;;;-0.85;81.84
16255;BME280;8235;52.198;9.904;2023-12-04T04:48:33;100774.75;;;-0.78;80.82
16255;BME280;8235;52.198;9.904;2023-12-04T04:50:59;100759.97;;;-0.82;81.10
16255;BME280;8235;52.198;9.904;2023-12-04T04:53:26;100763.44;;;-0.80;79.95
16255;BME280;8235;52.198;9.904;2023-12-04T04:55:53;100753.88;;;-0.81;79.88
16255;BME280;8235;52.198;9.904;2023-12-04T04:58:20;100749.50;;;-0.81;79.92
16255;BME280;8235;52.198;9.904;2023-12-04T05:00:46;100751.22;;;-0.80;79.71
16255;BME280;8235;52.198;9.904;2023-12-04T05:03:13;100750.38;;;-0.82;80.18
16255;BME280;8235;52.198;9.904;2023-12-04T05:05:39;100754.72;;;-0.81;79.76
16255;BME280;8235;52.198;9.904;2023-12-04T05:08:06;100745.16;;;-0.82;79.92
16255;BME280;8235;52.198;9.904;2023-12-04T05:10:32;100743.38;;;-0.80;79.61
16255;BME280;8235;52.198;9.904;2023-12-04T05:13:00;100739.94;;;-0.82;79.85
16255;BME280;8235;52.198;9.904;2023-12-04T05:15:26;100742.53;;;-0.82;80.32
16255;BME280;8235;52.198;9.904;2023-12-04T05:17:53;100748.63;;;-0.80;80.38
16255;BME280;8235;52.198;9.904;2023-12-04T05:20:19;100736.41;;;-0.79;79.99
16255;BME280;8235;52.198;9.904;2023-12-04T05:22:46;100743.38;;;-0.78;78.87
16255;BME280;8235;52.198;9.904;2023-12-04T05:25:14;100740.75;;;-0.78;79.33
16255;BME280;8235;52.198;9.904;2023-12-04T05:27:40;100739.94;;;-0.82;80.34
16255;BME280;8235;52.198;9.904;2023-12-04T05:30:09;100746.88;;;-0.79;79.73
16255;BME280;8235;52.198;9.904;2023-12-04T05:32:35;100742.53;;;-0.80;80.27
16255;BME280;8235;52.198;9.904;2023-12-04T05:35:02;100742.47;;;-0.76;79.40
16255;BME280;8235;52.198;9.904;2023-12-04T05:37:28;100732.88;;;-0.77;79.43
16255;BME280;8235;52.198;9.904;2023-12-04T05:39:55;100732.03;;;-0.79;79.13
16255;BME280;8235;52.198;9.904;2023-12-04T05:42:22;100729.44;;;-0.80;79.30
16255;BME280;8235;52.198;9.904;2023-12-04T05:44:48;100731.19;;;-0.81;79.47
16255;BME280;8235;52.198;9.904;2023-12-04T05:47:16;100725.13;;;-0.83;79.62
16255;BME280;8235;52.198;9.904;2023-12-04T05:49:42;100724.25;;;-0.82;79.38
16255;BME280;8235;52.198;9.904;2023-12-04T05:52:09;100709.41;;;-0.81;79.44
16255;BME280;8235;52.198;9.904;2023-12-04T05:54:35;100723.38;;;-0.82;78.66
16255;BME280;8235;52.198;9.904;2023-12-04T05:57:05;100713.78;;;-0.82;79.04
16255;BME280;8235;52.198;9.904;2023-12-04T05:59:31;100719.00;;;-0.82;79.37
16255;BME280;8235;52.198;9.904;2023-12-04T06:01:58;100725.13;;;-0.83;79.40
16255;BME280;8235;52.198;9.904;2023-12-04T06:04:26;100721.63;;;-0.82;79.41
16255;BME280;8235;52.198;9.904;2023-12-04T06:06:52;100720.78;;;-0.84;79.44
16255;BME280;8235;52.198;9.904;2023-12-04T06:09:19;100719.94;;;-0.86;79.75
16255;BME280;8235;52.198;9.904;2023-12-04T06:11:45;100712.13;;;-0.87;80.12
16255;BME280;8235;52.198;9.904;2023-12-04T06:14:12;100715.59;;;-0.87;79.75
16255;BME280;8235;52.198;9.904;2023-12-04T06:16:38;100706.88;;;-0.86;79.98
16255;BME280;8235;52.198;9.904;2023-12-04T06:19:05;100699.03;;;-0.86;79.81
16255;BME280;8235;52.198;9.904;2023-12-04T06:21:33;100706.84;;;-0.84;79.77
16255;BME280;8235;52.198;9.904;2023-12-04T06:23:59;100695.53;;;-0.86;79.96
16255;BME280;8235;52.198;9.904;2023-12-04T06:26:26;100704.25;;;-0.86;80.47
16255;BME280;8235;52.198;9.904;2023-12-04T06:28:53;100699.94;;;-0.88;80.54
16255;BME280;8235;52.198;9.904;2023-12-04T06:31:20;100689.41;;;-0.84;80.37
16255;BME280;8235;52.198;9.904;2023-12-04T06:33:47;100695.47;;;-0.82;80.86
16255;BME280;8235;52.198;9.904;2023-12-04T06:36:15;100699.81;;;-0.81;80.30
16255;BME280;8235;52.198;9.904;2023-12-04T06:38:46;100693.72;;;-0.81;80.43
16255;BME280;8235;52.198;9.904;2023-12-04T06:41:14;100700.69;;;-0.80;80.05
16255;BME280;8235;52.198;9.904;2023-12-04T06:43:41;100699.78;;;-0.79;79.81
16255;BME280;8235;52.198;9.904;2023-12-04T06:46:08;100689.34;;;-0.79;79.23
16255;BME280;8235;52.198;9.904;2023-12-04T06:48:35;100697.19;;;-0.81;79.61
16255;BME280;8235;52.198;9.904;2023-12-04T06:51:02;100697.19;;;-0.81;79.70
16255;BME280;8235;52.198;9.904;2023-12-04T06:53:28;100694.59;;;-0.81;79.88
16255;BME280;8235;52.198;9.904;2023-12-04T06:55:56;100686.75;;;-0.81;79.74
16255;BME280;8235;52.198;9.904;2023-12-04T06:58:23;100691.94;;;-0.79;79.44
16255;BME280;8235;52.198;9.904;2023-12-04T07:00:49;100691.94;;;-0.79;79.01
16255;BME280;8235;52.198;9.904;2023-12-04T07:03:16;100695.41;;;-0.77;78.79
16255;BME280;8235;52.198;9.904;2023-12-04T07:05:42;100704.94;;;-0.73;79.15
16255;BME280;8235;52.198;9.904;2023-12-04T07:08:09;100696.13;;;-0.69;77.98
16255;BME280;8235;52.198;9.904;2023-12-04T07:10:35;100698.75;;;-0.69;77.47
16255;BME280;8235;52.198;9.904;2023-12-04T07:13:04;100707.50;;;-0.72;77.24
16255;BME280;8235;52.198;9.904;2023-12-04T07:15:30;100708.41;;;-0.73;77.50
16255;BME280;8235;52.198;9.904;2023-12-04T07:17:57;100705.72;;;-0.70;77.74
16255;BME280;8235;52.198;9.904;2023-12-04T07:20:23;100707.50;;;-0.72;77.92
16255;BME280;8235;52.198;9.904;2023-12-04T07:22:50;100708.34;;;-0.70;77.58
16255;BME280;8235;52.198;9.904;2023-12-04T07:25:16;100707.50;;;-0.72;77.78
16255;BME280;8235;52.198;9.904;2023-12-04T07:27:42;100713.66;;;-0.73;77.50
16255;BME280;8235;52.198;9.904;2023-12-04T07:30:11;100713.53;;;-0.68;77.50
16255;BME280;8235;52.198;9.904;2023-12-04T07:32:38;100704.78;;;-0.65;76.91
16255;BME280;8235;52.198;9.904;2023-12-04T07:35:06;100703.03;;;-0.65;76.90
16255;BME280;8235;52.198;9.904;2023-12-04T07:37:32;100703.84;;;-0.61;76.89
16255;BME280;8235;52.198;9.904;2023-12-04T07:39:59;100707.38;;;-0.62;76.84
16255;BME280;8235;52.198;9.904;2023-12-04T07:42:26;100706.56;;;-0.67;77.44
16255;BME280;8235;52.198;9.904;2023-12-04T07:44:52;100702.19;;;-0.67;77.61
16255;BME280;8235;52.198;9.904;2023-12-04T07:47:20;100706.53;;;-0.64;77.49
16255;BME280;8235;52.198;9.904;2023-12-04T07:49:47;100700.41;;;-0.63;77.17
16255;BME280;8235;52.198;9.904;2023-12-04T07:52:14;100692.59;;;-0.66;77.32
16255;BME280;8235;52.198;9.904;2023-12-04T07:54:40;100699.50;;;-0.61;77.49
16255;BME280;8235;52.198;9.904;2023-12-04T07:57:07;100701.25;;;-0.61;77.56
16255;BME280;8235;52.198;9.904;2023-12-04T07:59:33;100689.06;;;-0.62;77.94
16255;BME280;8235;52.198;9.904;2023-12-04T08:02:00;100688.16;;;-0.61;78.08
16255;BME280;8235;52.198;9.904;2023-12-04T08:04:28;100689.00;;;-0.59;77.64
16255;BME280;8235;52.198;9.904;2023-12-04T08:06:54;100684.63;;;-0.57;77.49
16255;BME280;8235;52.198;9.904;2023-12-04T08:09:21;100681.16;;;-0.59;77.64
16255;BME280;8235;52.198;9.904;2023-12-04T08:11:48;100682.03;;;-0.59;77.76
16255;BME280;8235;52.198;9.904;2023-12-04T08:14:14;100677.69;;;-0.60;77.24
16255;BME280;8235;52.198;9.904;2023-12-04T08:16:41;100682.88;;;-0.57;77.25
16255;BME280;8235;52.198;9.904;2023-12-04T08:19:07;100692.41;;;-0.54;77.52
16255;BME280;8235;52.198;9.904;2023-12-04T08:21:35;100682.88;;;-0.57;77.53
16255;BME280;8235;52.198;9.904;2023-12-04T08:24:02;100684.63;;;-0.57;77.62
16255;BME280;8235;52.198;9.904;2023-12-04T08:26:28;100689.91;;;-0.60;77.98
16255;BME280;8235;52.198;9.904;2023-12-04T08:28:54;100669.91;;;-0.64;78.29
16255;BME280;8235;52.198;9.904;2023-12-04T08:31:21;100678.59;;;-0.62;78.19
16255;BME280;8235;52.198;9.904;2023-12-04T08:33:48;100669.81;;;-0.58;78.26
16255;BME280;8235;52.198;9.904;2023-12-04T08:36:14;100663.69;;;-0.57;77.79
16255;BME280;8235;52.198;9.904;2023-12-04T08:38:43;100668.09;;;-0.59;77.05
16255;BME280;8235;52.198;9.904;2023-12-04T08:41:09;100659.41;;;-0.61;77.94
16255;BME280;8235;52.198;9.904;2023-12-04T08:43:39;100666.34;;;-0.60;78.31
16255;BME280;8235;52.198;9.904;2023-12-04T08:46:12;100661.97;;;-0.58;77.20
16255;BME280;8235;52.198;9.904;2023-12-04T08:48:39;100664.59;;;-0.60;77.05
16255;BME280;8235;52.198;9.904;2023-12-04T08:51:06;100658.56;;;-0.63;77.01
16255;BME280;8235;52.198;9.904;2023-12-04T08:53:33;100658.56;;;-0.63;77.04
16255;BME280;8235;52.198;9.904;2023-12-04T08:56:01;100648.03;;;-0.59;77.48
16255;BME280;8235;52.198;9.904;2023-12-04T08:58:28;100650.63;;;-0.59;76.43
16255;BME280;8235;52.198;9.904;2023-12-04T09:00:54;100650.59;;;-0.57;76.77
16255;BME280;8235;52.198;9.904;2023-12-04T09:03:21;100650.59;;;-0.57;77.09
16255;BME280;8235;52.198;9.904;2023-12-04T09:05:49;100645.22;;;-0.50;77.08
16255;BME280;8235;52.198;9.904;2023-12-04T09:08:17;100645.19;;;-0.48;76.78
16255;BME280;8235;52.198;9.904;2023-12-04T09:10:43;100647.78;;;-0.47;76.52
16255;BME280;8235;52.198;9.904;2023-12-04T09:13:12;100644.31;;;-0.47;75.80
16255;BME280;8235;52.198;9.904;2023-12-04T09:15:38;100650.31;;;-0.42;75.09
16255;BME280;8235;52.198;9.904;2023-12-04T09:18:05;100647.69;;;-0.41;75.34
16255;BME280;8235;52.198;9.904;2023-12-04T09:20:31;100641.44;;;-0.33;74.74
16255;BME280;8235;52.198;9.904;2023-12-04T09:22:58;100639.75;;;-0.36;75.24
16255;BME280;8235;52.198;9.904;2023-12-04T09:25:24;100641.44;;;-0.33;75.13
16255;BME280;8235;52.198;9.904;2023-12-04T09:27:51;100643.97;;;-0.29;75.18
16255;BME280;8235;52.198;9.904;2023-12-04T09:30:19;100646.47;;;-0.23;74.50
16255;BME280;8235;52.198;9.904;2023-12-04T09:32:45;100639.38;;;-0.18;73.17
16255;BME280;8235;52.198;9.904;2023-12-04T09:35:12;100644.56;;;-0.15;73.42
16255;BME280;8235;52.198;9.904;2023-12-04T09:37:38;100638.31;;;-0.08;73.22
16255;BME280;8235;52.198;9.904;2023-12-04T09:40:06;100642.59;;;-0.04;73.26
16255;BME280;8235;52.198;9.904;2023-12-04T09:42:33;100642.63;;;-0.05;73.92
16255;BME280;8235;52.198;9.904;2023-12-04T09:45:00;100631.25;;;-0.03;73.43
16255;BME280;8235;52.198;9.904;2023-12-04T09:47:29;100627.69;;;0.00;73.75
16255;BME280;8235;52.198;9.904;2023-12-04T09:49:56;100623.22;;;0.05;73.60
16255;BME280;8235;52.198;9.904;2023-12-04T09:52:23;100616.16;;;0.09;73.41
16255;BME280;8235;52.198;9.904;2023-12-04T09:54:50;100617.88;;;0.10;72.44
16255;BME280;8235;52.198;9.904;2023-12-04T09:57:17;100616.03;;;0.15;72.36
16255;BME280;8235;52.198;9.904;2023-12-04T09:59:44;100598.59;;;0.14;72.38
16255;BME280;8235;52.198;9.904;2023-12-04T10:02:11;100606.41;;;0.17;71.73
16255;BME280;8235;52.198;9.904;2023-12-04T10:04:40;100597.56;;;0.21;70.86
16255;BME280;8235;52.198;9.904;2023-12-04T10:07:07;100596.66;;;0.22;70.34
16255;BME280;8235;52.198;9.904;2023-12-04T10:09:34;100588.84;;;0.19;70.30
16255;BME280;8235;52.198;9.904;2023-12-04T10:12:01;100587.03;;;0.22;70.58
16255;BME280;8235;52.198;9.904;2023-12-04T10:14:27;100587.03;;;0.22;70.20
16255;BME280;8235;52.198;9.904;2023-12-04T10:16:55;100580.94;;;0.22;71.12
16255;BME280;8235;52.198;9.904;2023-12-04T10:19:23;100580.03;;;0.24;71.05
16255;BME280;8235;52.198;9.904;2023-12-04T10:21:54;100572.19;;;0.23;71.34
16255;BME280;8235;52.198;9.904;2023-12-04T10:24:29;100572.16;;;0.24;70.83
16255;BME280;8235;52.198;9.904;2023-12-04T10:26:56;100565.16;;;0.25;70.85
16255;BME280;8235;52.198;9.904;2023-12-04T10:29:24;100560.00;;;0.22;71.23
16255;BME280;8235;52.198;9.904;2023-12-04T10:31:52;100553.94;;;0.18;71.25
16255;BME280;8235;52.198;9.904;2023-12-04T10:34:21;100553.00;;;0.22;70.00
16255;BME280;8235;52.198;9.904;2023-12-04T10:36:52;100552.09;;;0.23;70.07
16255;BME280;8235;52.198;9.904;2023-12-04T10:39:20;100546.97;;;0.19;70.41
16255;BME280;8235;52.198;9.904;2023-12-04T10:41:58;100545.25;;;0.18;70.56
16255;BME280;8235;52.198;9.904;2023-12-04T10:44:25;100545.25;;;0.18;70.37
16255;BME280;8235;52.198;9.904;2023-12-04T10:46:52;100538.19;;;0.21;69.97
16255;BME280;8235;52.198;9.904;2023-12-04T10:49:20;100536.34;;;0.25;70.29
16255;BME280;8235;52.198;9.904;2023-12-04T10:51:46;100530.16;;;0.29;70.68
16255;BME280;8235;52.198;9.904;2023-12-04T10:54:14;100523.19;;;0.28;69.19
16255;BME280;8235;52.198;9.904;2023-12-04T10:56:42;100523.13;;;0.31;69.44
16255;BME280;8235;52.198;9.904;2023-12-04T10:59:11;100523.97;;;0.33;68.97
16255;BME280;8235;52.198;9.904;2023-12-04T11:01:42;100518.75;;;0.31;69.62
16255;BME280;8235;52.198;9.904;2023-12-04T11:04:16;100510.84;;;0.33;69.37
16255;BME280;8235;52.198;9.904;2023-12-04T11:06:46;100513.47;;;0.33;70.04
16255;BME280;8235;52.198;9.904;2023-12-04T11:09:17;100499.44;;;0.36;70.13
16255;BME280;8235;52.198;9.904;2023-12-04T11:11:48;100500.22;;;0.39;69.16
16255;BME280;8235;52.198;9.904;2023-12-04T11:14:19;100497.59;;;0.39;69.54
16255;BME280;8235;52.198;9.904;2023-12-04T11:16:49;100491.44;;;0.40;69.03
16255;BME280;8235;52.198;9.904;2023-12-04T11:19:23;100490.59;;;0.40;68.60
16255;BME280;8235;52.198;9.904;2023-12-04T11:21:53;100484.50;;;0.39;68.60
16255;BME280;8235;52.198;9.904;2023-12-04T11:24:24;100482.69;;;0.41;67.91
16255;BME280;8235;52.198;9.904;2023-12-04T11:26:50;100486.19;;;0.42;68.18
16255;BME280;8235;52.198;9.904;2023-12-04T11:29:19;100483.53;;;0.43;68.32
16255;BME280;8235;52.198;9.904;2023-12-04T11:31:46;100478.31;;;0.42;68.80
16255;BME280;8235;52.198;9.904;2023-12-04T11:34:12;100477.38;;;0.44;68.39
16255;BME280;8235;52.198;9.904;2023-12-04T11:36:39;100478.28;;;0.43;68.29
16255;BME280;8235;52.198;9.904;2023-12-04T11:39:09;100472.16;;;0.44;69.02
16255;BME280;8235;52.198;9.904;2023-12-04T11:41:37;100468.63;;;0.45;69.19
16255;BME280;8235;52.198;9.904;2023-12-04T11:44:11;100468.63;;;0.45;69.63
16255;BME280;8235;52.198;9.904;2023-12-04T11:46:39;100466.78;;;0.50;69.37
16255;BME280;8235;52.198;9.904;2023-12-04T11:49:26;100453.59;;;0.53;69.88
16255;BME280;8235;52.198;9.904;2023-12-04T11:51:53;100441.28;;;0.55;69.10
16255;BME280;8235;52.198;9.904;2023-12-04T11:54:22;100448.22;;;0.58;69.05
16255;BME280;8235;52.198;9.904;2023-12-04T11:57:20;100444.63;;;0.62;69.47
16255;BME280;8235;52.198;9.904;2023-12-04T11:59:49;100458.47;;;0.67;69.63
16255;BME280;8235;52.198;9.904;2023-12-04T12:02:16;100446.19;;;0.69;68.85
16255;BME280;8235;52.198;9.904;2023-12-04T12:04:43;100440.84;;;0.72;68.96
16255;BME280;8235;52.198;9.904;2023-12-04T12:07:11;100436.38;;;0.76;69.42
16255;BME280;8235;52.198;9.904;2023-12-04T12:09:38;100428.38;;;0.82;69.33
16255;BME280;8235;52.198;9.904;2023-12-04T12:12:05;100430.84;;;0.88;67.01
16255;BME280;8235;52.198;9.904;2023-12-04T12:14:33;100428.06;;;0.92;65.82
16255;BME280;8235;52.198;9.904;2023-12-04T12:17:00;100424.69;;;0.89;65.40
16255;BME280;8235;52.198;9.904;2023-12-04T12:19:27;100422.06;;;0.89;64.83
16255;BME280;8235;52.198;9.904;2023-12-04T12:21:53;100423.75;;;0.90;64.04
16255;BME280;8235;52.198;9.904;2023-12-04T12:24:20;100420.22;;;0.91;64.52
16255;BME280;8235;52.198;9.904;2023-12-04T12:26:47;100408.03;;;0.90;64.67
16255;BME280;8235;52.198;9.904;2023-12-04T12:29:13;100402.78;;;0.90;64.94
16255;BME280;8235;52.198;9.904;2023-12-04T12:31:41;100396.72;;;0.89;65.39
16255;BME280;8235;52.198;9.904;2023-12-04T12:34:07;100396.75;;;0.88;65.21
16255;BME280;8235;52.198;9.904;2023-12-04T12:36:34;100392.28;;;0.90;65.21
16255;BME280;8235;52.198;9.904;2023-12-04T12:39:00;100388.88;;;0.88;65.14
16255;BME280;8235;52.198;9.904;2023-12-04T12:41:29;100383.69;;;0.86;65.10
16255;BME280;8235;52.198;9.904;2023-12-04T12:43:55;100373.28;;;0.83;65.20
16255;BME280;8235;52.198;9.904;2023-12-04T12:46:22;100370.56;;;0.86;64.93
16255;BME280;8235;52.198;9.904;2023-12-04T12:48:51;100369.69;;;0.87;64.29
16255;BME280;8235;52.198;9.904;2023-12-04T12:51:17;100374.06;;;0.87;64.86
16255;BME280;8235;52.198;9.904;2023-12-04T12:53:44;100367.06;;;0.87;64.82
16255;BME280;8235;52.198;9.904;2023-12-04T12:56:11;100365.34;;;0.86;64.73
16255;BME280;8235;52.198;9.904;2023-12-04T12:58:37;100359.03;;;0.92;65.38
16255;BME280;8235;52.198;9.904;2023-12-04T13:01:04;100357.22;;;0.94;64.60
16255;BME280;8235;52.198;9.904;2023-12-04T13:03:30;100351.94;;;0.95;63.85